sensor_id;sensor_type;location;lat;lon;timestamp;pressure;altitude;pressure_sealevel;temperature;humidity
84358;BME280;74548;47.712;9.272;2023-12-04T00:02:17;95796.84;;;-0.30;70.58
84358;BME280;74548;47.712;9.272;2023-12-04T00:04:42;95797.66;;;-0.30;70.82
84358;BME280;74548;47.712;9.272;2023-12-04T00:07:07;95790.50;;;-0.29;70.68
84358;BME280;74548;47.712;9.272;2023-12-04T00:09:32;95780.69;;;-0.29;70.46
84358;BME280;74548;47.712;9.272;2023-12-04T00:11:58;95780.94;;;-0.30;70.55
84358;BME280;74548;47.712;9.272;2023-12-04T00:14:23;95767.66;;;-0.30;70.08
84358;BME280;74548;47.712;9.272;2023-12-04T00:16:48;95768.47;;;-0.30;70.23
84358;BME280;74548;47.712;9.272;2023-12-04T00:19:14;95769.28;;;-0.29;70.03
84358;BME280;74548;47.712;9.272;2023-12-04T00:21:39;95766.06;;;-0.31;70.31
84358;BME280;74548;47.712;9.272;2023-12-04T00:24:05;95761.56;;;-0.31;70.46
84358;BME280;74548;47.712;9.272;2023-12-04T00:26:30;95761.56;;;-0.31;70.37
84358;BME280;74548;47.712;9.272;2023-12-04T00:28:55;95756.25;;;-0.31;70.30
84358;BME280;74548;47.712;9.272;2023-12-04T00:31:21;95752.78;;;-0.31;70.22
84358;BME280;74548;47.712;9.272;2023-12-04T00:33:46;95758.09;;;-0.31;70.50
84358;BME280;74548;47.712;9.272;2023-12-04T00:36:13;95762.38;;;-0.30;70.71
84358;BME280;74548;47.712;9.272;2023-12-04T00:38:38;95754.41;;;-0.30;69.90
84358;BME280;74548;47.712;9.272;2023-12-04T00:41:04;95759.72;;;-0.30;70.54
84358;BME280;74548;47.712;9.272;2023-12-04T00:43:29;95744.59;;;-0.30;70.35
84358;BME280;74548;47.712;9.272;2023-12-04T00:45:54;95742.75;;;-0.29;70.47
84358;BME280;74548;47.712;9.272;2023-12-04T00:48:20;95743.56;;;-0.29;70.50
84358;BME280;74548;47.712;9.272;2023-12-04T00:50:45;95742.56;;;-0.28;70.82
84358;BME280;74548;47.712;9.272;2023-12-04T00:53:10;95730.09;;;-0.27;70.61
84358;BME280;74548;47.712;9.272;2023-12-04T00:55:36;95722.94;;;-0.27;70.81
84358;BME280;74548;47.712;9.272;2023-12-04T00:58:01;95715.81;;;-0.26;70.39
84358;BME280;74548;47.712;9.272;2023-12-04T01:00:26;95720.09;;;-0.25;70.80
84358;BME280;74548;47.712;9.272;2023-12-04T01:02:52;95719.25;;;-0.26;70.55
84358;BME280;74548;47.712;9.272;2023-12-04T01:05:17;95707.84;;;-0.26;70.54
84358;BME280;74548;47.712;9.272;2023-12-04T01:07:42;95719.25;;;-0.26;70.33
84358;BME280;74548;47.712;9.272;2023-12-04T01:10:08;95719.25;;;-0.26;70.29
84358;BME280;74548;47.712;9.272;2023-12-04T01:12:33;95720.31;;;-0.27;70.40
84358;BME280;74548;47.712;9.272;2023-12-04T01:14:59;95718.44;;;-0.26;70.58
84358;BME280;74548;47.712;9.272;2023-12-04T01:17:24;95722.75;;;-0.25;70.63
84358;BME280;74548;47.712;9.272;2023-12-04T01:19:49;95717.44;;;-0.25;70.69
84358;BME280;74548;47.712;9.272;2023-12-04T01:22:15;95725.41;;;-0.25;70.34
84358;BME280;74548;47.712;9.272;2023-12-04T01:24:40;95725.41;;;-0.25;70.62
84358;BME280;74548;47.712;9.272;2023-12-04T01:27:06;95718.44;;;-0.26;70.66
84358;BME280;74548;47.712;9.272;2023-12-04T01:29:31;95722.75;;;-0.25;70.28
84358;BME280;74548;47.712;9.272;2023-12-04T01:31:57;95728.06;;;-0.25;70.56
84358;BME280;74548;47.712;9.272;2023-12-04T01:34:22;95726.41;;;-0.26;70.45
84358;BME280;74548;47.712;9.272;2023-12-04T01:36:48;95731.50;;;-0.25;70.45
84358;BME280;74548;47.712;9.272;2023-12-04T01:39:13;95733.34;;;-0.25;70.53
84358;BME280;74548;47.712;9.272;2023-12-04T01:41:38;95721.91;;;-0.26;70.38
84358;BME280;74548;47.712;9.272;2023-12-04T01:44:05;95724.56;;;-0.26;70.16
84358;BME280;74548;47.712;9.272;2023-12-04T01:46:30;95723.56;;;-0.25;70.45
84358;BME280;74548;47.712;9.272;2023-12-04T01:48:56;95724.38;;;-0.24;70.33
84358;BME280;74548;47.712;9.272;2023-12-04T01:51:22;95720.09;;;-0.25;70.39
84358;BME280;74548;47.712;9.272;2023-12-04T01:53:48;95725.41;;;-0.25;70.39
84358;BME280;74548;47.712;9.272;2023-12-04T01:56:14;95729.88;;;-0.26;70.32
84358;BME280;74548;47.712;9.272;2023-12-04T01:58:40;95725.41;;;-0.25;70.30
84358;BME280;74548;47.712;9.272;2023-12-04T02:01:06;95728.06;;;-0.25;70.27
84358;BME280;74548;47.712;9.272;2023-12-04T02:03:31;95722.75;;;-0.25;70.51
84358;BME280;74548;47.712;9.272;2023-12-04T02:05:59;95715.59;;;-0.25;70.51
84358;BME280;74548;47.712;9.272;2023-12-04T02:08:26;95718.25;;;-0.25;70.31
84358;BME280;74548;47.712;9.272;2023-12-04T02:10:51;95711.31;;;-0.26;70.26
84358;BME280;74548;47.712;9.272;2023-12-04T02:13:17;95711.31;;;-0.26;70.40
84358;BME280;74548;47.712;9.272;2023-12-04T02:15:42;95701.53;;;-0.25;70.27
84358;BME280;74548;47.712;9.272;2023-12-04T02:18:09;95702.53;;;-0.26;70.33
84358;BME280;74548;47.712;9.272;2023-12-04T02:20:35;95699.69;;;-0.25;70.29
84358;BME280;74548;47.712;9.272;2023-12-04T02:23:01;95705.00;;;-0.25;70.13
84358;BME280;74548;47.712;9.272;2023-12-04T02:25:27;95706.84;;;-0.25;70.21
84358;BME280;74548;47.712;9.272;2023-12-04T02:27:54;95704.19;;;-0.25;70.11
84358;BME280;74548;47.712;9.272;2023-12-04T02:30:22;95706.84;;;-0.25;70.19
84358;BME280;74548;47.712;9.272;2023-12-04T02:32:50;95706.00;;;-0.26;70.51
84358;BME280;74548;47.712;9.272;2023-12-04T02:35:20;95699.69;;;-0.25;70.19
84358;BME280;74548;47.712;9.272;2023-12-04T02:37:47;95705.00;;;-0.25;70.17
84358;BME280;74548;47.712;9.272;2023-12-04T02:40:13;95702.34;;;-0.25;70.18
84358;BME280;74548;47.712;9.272;2023-12-04T02:42:39;95691.13;;;-0.27;70.31
84358;BME280;74548;47.712;9.272;2023-12-04T02:45:05;95683.78;;;-0.25;70.19
84358;BME280;74548;47.712;9.272;2023-12-04T02:47:30;95681.94;;;-0.24;70.29
84358;BME280;74548;47.712;9.272;2023-12-04T02:49:56;95675.00;;;-0.25;70.31
84358;BME280;74548;47.712;9.272;2023-12-04T02:52:21;95675.81;;;-0.25;70.06
84358;BME280;74548;47.712;9.272;2023-12-04T02:54:46;95679.28;;;-0.24;70.53
84358;BME280;74548;47.712;9.272;2023-12-04T02:57:12;95683.53;;;-0.23;70.09
84358;BME280;74548;47.712;9.272;2023-12-04T02:59:37;95679.28;;;-0.24;70.11
84358;BME280;74548;47.712;9.272;2023-12-04T03:02:03;95670.28;;;-0.23;70.30
84358;BME280;74548;47.712;9.272;2023-12-04T03:04:28;95669.28;;;-0.22;70.55
84358;BME280;74548;47.712;9.272;2023-12-04T03:06:54;95663.13;;;-0.22;70.38
84358;BME280;74548;47.712;9.272;2023-12-04T03:09:20;95656.00;;;-0.22;70.13
84358;BME280;74548;47.712;9.272;2023-12-04T03:11:45;95646.41;;;-0.23;70.24
84358;BME280;74548;47.712;9.272;2023-12-04T03:14:10;95653.34;;;-0.22;70.39
84358;BME280;74548;47.712;9.272;2023-12-04T03:16:36;95644.34;;;-0.21;70.33
84358;BME280;74548;47.712;9.272;2023-12-04T03:19:01;95643.56;;;-0.21;70.34
84358;BME280;74548;47.712;9.272;2023-12-04T03:21:26;95628.44;;;-0.21;70.81
84358;BME280;74548;47.712;9.272;2023-12-04T03:23:54;95638.00;;;-0.20;70.36
84358;BME280;74548;47.712;9.272;2023-12-04T03:26:19;95631.91;;;-0.20;70.29
84358;BME280;74548;47.712;9.272;2023-12-04T03:28:44;95624.75;;;-0.20;70.38
84358;BME280;74548;47.712;9.272;2023-12-04T03:31:09;95639.66;;;-0.19;70.50
84358;BME280;74548;47.712;9.272;2023-12-04T03:33:35;95633.50;;;-0.19;70.58
84358;BME280;74548;47.712;9.272;2023-12-04T03:36:00;95632.50;;;-0.18;70.16
84358;BME280;74548;47.712;9.272;2023-12-04T03:38:26;95634.13;;;-0.17;70.46
84358;BME280;74548;47.712;9.272;2023-12-04T03:40:51;95629.03;;;-0.19;70.24
84358;BME280;74548;47.712;9.272;2023-12-04T03:43:17;95635.16;;;-0.18;70.31
84358;BME280;74548;47.712;9.272;2023-12-04T03:45:42;95641.25;;;-0.18;70.50
84358;BME280;74548;47.712;9.272;2023-12-04T03:48:08;95629.69;;;-0.24;70.34
84358;BME280;74548;47.712;9.272;2023-12-04T03:50:33;95628.22;;;-0.19;70.58
84358;BME280;74548;47.712;9.272;2023-12-04T03:52:59;95629.63;;;-0.17;70.40
84358;BME280;74548;47.712;9.272;2023-12-04T03:55:24;95628.81;;;-0.17;70.14
84358;BME280;74548;47.712;9.272;2023-12-04T03:57:49;95624.31;;;-0.17;70.14
84358;BME280;74548;47.712;9.272;2023-12-04T04:00:15;95621.91;;;-0.18;70.31
84358;BME280;74548;47.712;9.272;2023-12-04T04:02:43;95621.66;;;-0.17;70.23
84358;BME280;74548;47.712;9.272;2023-12-04T04:05:08;95621.66;;;-0.17;70.38
84358;BME280;74548;47.712;9.272;2023-12-04T04:07:34;95621.09;;;-0.19;70.25
84358;BME280;74548;47.712;9.272;2023-12-04T04:09:59;95619.00;;;-0.17;70.37
84358;BME280;74548;47.712;9.272;2023-12-04T04:12:26;95606.78;;;-0.18;70.14
84358;BME280;74548;47.712;9.272;2023-12-04T04:14:51;95613.69;;;-0.17;70.13
84358;BME280;74548;47.712;9.272;2023-12-04T04:17:17;95610.03;;;-0.16;70.14
84358;BME280;74548;47.712;9.272;2023-12-04T04:19:42;95603.09;;;-0.17;70.57
84358;BME280;74548;47.712;9.272;2023-12-04T04:22:07;95596.97;;;-0.17;70.27
84358;BME280;74548;47.712;9.272;2023-12-04T04:24:32;95587.97;;;-0.16;70.33
84358;BME280;74548;47.712;9.272;2023-12-04T04:26:58;95587.97;;;-0.16;70.37
84358;BME280;74548;47.712;9.272;2023-12-04T04:29:23;95580.03;;;-0.16;70.37
84358;BME280;74548;47.712;9.272;2023-12-04T04:31:48;95587.97;;;-0.16;70.56
84358;BME280;74548;47.712;9.272;2023-12-04T04:34:14;95589.63;;;-0.15;70.26
84358;BME280;74548;47.712;9.272;2023-12-04T04:36:39;95585.13;;;-0.15;70.53
84358;BME280;74548;47.712;9.272;2023-12-04T04:39:04;95586.97;;;-0.15;70.66
84358;BME280;74548;47.712;9.272;2023-12-04T04:41:30;95591.22;;;-0.14;70.76
84358;BME280;74548;47.712;9.272;2023-12-04T04:43:55;95586.72;;;-0.14;70.25
84358;BME280;74548;47.712;9.272;2023-12-04T04:46:21;95591.00;;;-0.13;70.57
84358;BME280;74548;47.712;9.272;2023-12-04T04:48:46;95577.72;;;-0.13;70.36
84358;BME280;74548;47.712;9.272;2023-12-04T04:51:11;95576.13;;;-0.14;70.58
84358;BME280;74548;47.712;9.272;2023-12-04T04:53:38;95574.06;;;-0.12;70.59
84358;BME280;74548;47.712;9.272;2023-12-04T04:56:03;95573.25;;;-0.12;70.29
84358;BME280;74548;47.712;9.272;2023-12-04T04:58:29;95574.06;;;-0.12;70.68
84358;BME280;74548;47.712;9.272;2023-12-04T05:00:54;95572.44;;;-0.13;70.79
84358;BME280;74548;47.712;9.272;2023-12-04T05:03:19;95567.72;;;-0.11;70.47
84358;BME280;74548;47.712;9.272;2023-12-04T05:05:45;95558.16;;;-0.12;70.76
84358;BME280;74548;47.712;9.272;2023-12-04T05:08:10;95558.97;;;-0.11;70.58
84358;BME280;74548;47.712;9.272;2023-12-04T05:10:35;95555.50;;;-0.12;70.52
84358;BME280;74548;47.712;9.272;2023-12-04T05:13:02;95557.34;;;-0.12;70.62
84358;BME280;74548;47.712;9.272;2023-12-04T05:15:28;95560.81;;;-0.12;70.73
84358;BME280;74548;47.712;9.272;2023-12-04T05:17:53;95558.16;;;-0.12;70.64
84358;BME280;74548;47.712;9.272;2023-12-04T05:20:18;95548.34;;;-0.11;70.55
84358;BME280;74548;47.712;9.272;2023-12-04T05:22:44;95548.34;;;-0.11;70.71
84358;BME280;74548;47.712;9.272;2023-12-04T05:25:09;95540.38;;;-0.11;70.71
84358;BME280;74548;47.712;9.272;2023-12-04T05:27:35;95547.31;;;-0.10;70.92
84358;BME280;74548;47.712;9.272;2023-12-04T05:30:00;95541.63;;;-0.14;70.42
84358;BME280;74548;47.712;9.272;2023-12-04T05:32:25;95541.19;;;-0.11;70.90
84358;BME280;74548;47.712;9.272;2023-12-04T05:34:51;95539.13;;;-0.09;70.83
84358;BME280;74548;47.712;9.272;2023-12-04T05:37:16;95540.16;;;-0.10;70.65
84358;BME280;74548;47.712;9.272;2023-12-04T05:39:42;95533.22;;;-0.11;70.71
84358;BME280;74548;47.712;9.272;2023-12-04T05:42:07;95532.19;;;-0.10;70.79
84358;BME280;74548;47.712;9.272;2023-12-04T05:44:33;95523.44;;;-0.10;70.71
84358;BME280;74548;47.712;9.272;2023-12-04T05:46:58;95529.34;;;-0.08;70.74
84358;BME280;74548;47.712;9.272;2023-12-04T05:49:24;95526.88;;;-0.10;70.67
84358;BME280;74548;47.712;9.272;2023-12-04T05:51:49;95531.97;;;-0.08;70.88
84358;BME280;74548;47.712;9.272;2023-12-04T05:54:15;95531.97;;;-0.08;70.69
84358;BME280;74548;47.712;9.272;2023-12-04T05:56:40;95526.69;;;-0.08;70.64
84358;BME280;74548;47.712;9.272;2023-12-04T05:59:05;95514.47;;;-0.09;70.62
84358;BME280;74548;47.712;9.272;2023-12-04T06:01:31;95522.19;;;-0.08;70.71
84358;BME280;74548;47.712;9.272;2023-12-04T06:03:56;95508.91;;;-0.08;70.61
84358;BME280;74548;47.712;9.272;2023-12-04T06:06:21;95519.53;;;-0.08;70.63
84358;BME280;74548;47.712;9.272;2023-12-04T06:08:47;95508.09;;;-0.08;70.68
84358;BME280;74548;47.712;9.272;2023-12-04T06:11:13;95507.06;;;-0.07;70.55
84358;BME280;74548;47.712;9.272;2023-12-04T06:13:38;95511.56;;;-0.08;70.56
84358;BME280;74548;47.712;9.272;2023-12-04T06:16:04;95510.53;;;-0.07;70.68
84358;BME280;74548;47.712;9.272;2023-12-04T06:18:29;95504.41;;;-0.07;70.84
84358;BME280;74548;47.712;9.272;2023-12-04T06:20:54;95493.81;;;-0.07;70.86
84358;BME280;74548;47.712;9.272;2023-12-04T06:23:20;95482.38;;;-0.08;70.85
84358;BME280;74548;47.712;9.272;2023-12-04T06:25:46;95479.72;;;-0.08;70.78
84358;BME280;74548;47.712;9.272;2023-12-04T06:28:11;95478.94;;;-0.08;70.91
84358;BME280;74548;47.712;9.272;2023-12-04T06:30:38;95472.56;;;-0.07;70.64
84358;BME280;74548;47.712;9.272;2023-12-04T06:33:03;95483.19;;;-0.07;70.82
84358;BME280;74548;47.712;9.272;2023-12-04T06:35:29;95476.88;;;-0.06;70.64
84358;BME280;74548;47.712;9.272;2023-12-04T06:37:54;95474.22;;;-0.06;70.51
84358;BME280;74548;47.712;9.272;2023-12-04T06:40:21;95469.72;;;-0.06;71.15
84358;BME280;74548;47.712;9.272;2023-12-04T06:42:47;95460.94;;;-0.06;70.62
84358;BME280;74548;47.712;9.272;2023-12-04T06:45:12;95473.97;;;-0.05;70.87
84358;BME280;74548;47.712;9.272;2023-12-04T06:47:40;95470.72;;;-0.07;70.79
84358;BME280;74548;47.712;9.272;2023-12-04T06:50:06;95459.09;;;-0.06;70.58
84358;BME280;74548;47.712;9.272;2023-12-04T06:52:31;95456.22;;;-0.04;70.69
84358;BME280;74548;47.712;9.272;2023-12-04T06:54:56;95451.94;;;-0.05;70.79
84358;BME280;74548;47.712;9.272;2023-12-04T06:57:22;95445.59;;;-0.04;70.85
84358;BME280;74548;47.712;9.272;2023-12-04T06:59:47;95449.28;;;-0.05;70.92
84358;BME280;74548;47.712;9.272;2023-12-04T07:02:12;95444.00;;;-0.05;70.79
84358;BME280;74548;47.712;9.272;2023-12-04T07:04:37;95442.94;;;-0.04;70.90
84358;BME280;74548;47.712;9.272;2023-12-04T07:07:03;95433.97;;;-0.03;70.98
84358;BME280;74548;47.712;9.272;2023-12-04T07:09:33;95424.16;;;-0.03;70.75
84358;BME280;74548;47.712;9.272;2023-12-04T07:12:02;95418.06;;;-0.03;70.89
84358;BME280;74548;47.712;9.272;2023-12-04T07:14:28;95436.63;;;-0.03;70.74
84358;BME280;74548;47.712;9.272;2023-12-04T07:16:53;95446.19;;;-0.02;70.58
84358;BME280;74548;47.712;9.272;2023-12-04T07:19:19;95449.06;;;-0.04;70.70
84358;BME280;74548;47.712;9.272;2023-12-04T07:21:45;95442.75;;;-0.03;70.87
84358;BME280;74548;47.712;9.272;2023-12-04T07:24:10;95456.81;;;-0.02;70.74
84358;BME280;74548;47.712;9.272;2023-12-04T07:26:35;95462.91;;;-0.02;70.68
84358;BME280;74548;47.712;9.272;2023-12-04T07:29:02;95460.25;;;-0.02;70.60
84358;BME280;74548;47.712;9.272;2023-12-04T07:31:27;95461.31;;;-0.03;70.73
84358;BME280;74548;47.712;9.272;2023-12-04T07:33:53;95453.91;;;-0.01;70.81
84358;BME280;74548;47.712;9.272;2023-12-04T07:36:19;95480.44;;;-0.01;70.81
84358;BME280;74548;47.712;9.272;2023-12-04T07:38:45;95464.53;;;-0.01;70.63
84358;BME280;74548;47.712;9.272;2023-12-04T07:41:10;95460.84;;;0.01;70.57
84358;BME280;74548;47.712;9.272;2023-12-04T07:43:36;95452.91;;;0.01;70.84
84358;BME280;74548;47.712;9.272;2023-12-04T07:46:01;95452.66;;;0.02;70.71
84358;BME280;74548;47.712;9.272;2023-12-04T07:48:26;95442.03;;;0.02;70.79
84358;BME280;74548;47.712;9.272;2023-12-04T07:50:52;95440.19;;;0.03;70.80
84358;BME280;74548;47.712;9.272;2023-12-04T07:53:17;95422.66;;;0.02;70.74
84358;BME280;74548;47.712;9.272;2023-12-04T07:55:43;95431.44;;;0.02;70.79
84358;BME280;74548;47.712;9.272;2023-12-04T07:58:09;95420.81;;;0.02;70.61
84358;BME280;74548;47.712;9.272;2023-12-04T08:00:34;95411.00;;;0.03;70.51
84358;BME280;74548;47.712;9.272;2023-12-04T08:03:00;95405.69;;;0.03;70.77
84358;BME280;74548;47.712;9.272;2023-12-04T08:05:25;95406.50;;;0.03;70.62
84358;BME280;74548;47.712;9.272;2023-12-04T08:07:52;95414.25;;;0.05;70.74
84358;BME280;74548;47.712;9.272;2023-12-04T08:10:18;95402.03;;;0.04;70.68
84358;BME280;74548;47.712;9.272;2023-12-04T08:12:45;95410.56;;;0.06;70.61
84358;BME280;74548;47.712;9.272;2023-12-04T08:15:11;95397.28;;;0.06;70.48
84358;BME280;74548;47.712;9.272;2023-12-04T08:17:36;95407.91;;;0.06;70.75
84358;BME280;74548;47.712;9.272;2023-12-04T08:20:01;95399.94;;;0.06;70.63
84358;BME280;74548;47.712;9.272;2023-12-04T08:22:27;95406.06;;;0.06;70.45
84358;BME280;74548;47.712;9.272;2023-12-04T08:24:52;95404.25;;;0.07;70.45
84358;BME280;74548;47.712;9.272;2023-12-04T08:27:18;95406.88;;;0.07;70.41
84358;BME280;74548;47.712;9.272;2023-12-04T08:29:43;95403.19;;;0.08;70.46
84358;BME280;74548;47.712;9.272;2023-12-04T08:32:09;95405.84;;;0.08;70.61
84358;BME280;74548;47.712;9.272;2023-12-04T08:34:34;95404.81;;;0.09;70.66
84358;BME280;74548;47.712;9.272;2023-12-04T08:36:59;95413.81;;;0.08;70.37
84358;BME280;74548;47.712;9.272;2023-12-04T08:39:25;95408.50;;;0.08;70.16
84358;BME280;74548;47.712;9.272;2023-12-04T08:41:50;95410.09;;;0.09;70.33
84358;BME280;74548;47.712;9.272;2023-12-04T08:44:15;95396.84;;;0.09;70.38
84358;BME280;74548;47.712;9.272;2023-12-04T08:46:42;95403.78;;;0.10;70.41
84358;BME280;74548;47.712;9.272;2023-12-04T08:49:07;95409.66;;;0.12;70.41
84358;BME280;74548;47.712;9.272;2023-12-04T08:51:32;95400.88;;;0.11;70.39
84358;BME280;74548;47.712;9.272;2023-12-04T08:53:58;95404.34;;;0.12;70.50
84358;BME280;74548;47.712;9.272;2023-12-04T08:56:23;95395.38;;;0.13;70.35
84358;BME280;74548;47.712;9.272;2023-12-04T08:58:48;95384.75;;;0.13;70.25
84358;BME280;74548;47.712;9.272;2023-12-04T09:01:15;95386.38;;;0.14;70.06
84358;BME280;74548;47.712;9.272;2023-12-04T09:03:40;95395.94;;;0.15;70.12
84358;BME280;74548;47.712;9.272;2023-12-04T09:06:06;95397.53;;;0.16;70.11
84358;BME280;74548;47.712;9.272;2023-12-04T09:08:31;95396.53;;;0.17;70.07
84358;BME280;74548;47.712;9.272;2023-12-04T09:10:57;95398.94;;;0.18;69.93
84358;BME280;74548;47.712;9.272;2023-12-04T09:13:23;95397.91;;;0.19;70.15
84358;BME280;74548;47.712;9.272;2023-12-04T09:15:48;95398.72;;;0.20;70.01
84358;BME280;74548;47.712;9.272;2023-12-04T09:18:13;95401.13;;;0.21;70.27
84358;BME280;74548;47.712;9.272;2023-12-04T09:20:39;95398.25;;;0.23;69.91
84358;BME280;74548;47.712;9.272;2023-12-04T09:23:04;95397.22;;;0.24;70.49
84358;BME280;74548;47.712;9.272;2023-12-04T09:25:29;95408.63;;;0.25;70.28
84358;BME280;74548;47.712;9.272;2023-12-04T09:27:55;95409.44;;;0.25;70.04
84358;BME280;74548;47.712;9.272;2023-12-04T09:30:20;95420.06;;;0.25;70.00
84358;BME280;74548;47.712;9.272;2023-12-04T09:32:45;95413.72;;;0.26;69.80
84358;BME280;74548;47.712;9.272;2023-12-04T09:35:11;95406.78;;;0.25;70.08
84358;BME280;74548;47.712;9.272;2023-12-04T09:37:36;95403.34;;;0.25;69.71
84358;BME280;74548;47.712;9.272;2023-12-04T09:40:02;95391.09;;;0.23;69.71
84358;BME280;74548;47.712;9.272;2023-12-04T09:42:29;95385.78;;;0.23;69.43
84358;BME280;74548;47.712;9.272;2023-12-04T09:44:56;95378.63;;;0.24;69.82
84358;BME280;74548;47.712;9.272;2023-12-04T09:47:22;95373.34;;;0.24;69.86
84358;BME280;74548;47.712;9.272;2023-12-04T09:49:51;95374.13;;;0.25;69.77
84358;BME280;74548;47.712;9.272;2023-12-04T09:52:18;95390.66;;;0.27;69.85
84358;BME280;74548;47.712;9.272;2023-12-04T09:54:44;95395.72;;;0.28;69.64
84358;BME280;74548;47.712;9.272;2023-12-04T09:57:10;95391.25;;;0.29;69.69
84358;BME280;74548;47.712;9.272;2023-12-04T09:59:35;95380.38;;;0.30;70.02
84358;BME280;74548;47.712;9.272;2023-12-04T10:02:01;95391.00;;;0.30;69.75
84358;BME280;74548;47.712;9.272;2023-12-04T10:04:26;95392.59;;;0.31;69.70
84358;BME280;74548;47.712;9.272;2023-12-04T10:06:52;95397.69;;;0.33;69.47
84358;BME280;74548;47.712;9.272;2023-12-04T10:09:18;95400.56;;;0.31;69.22
84358;BME280;74548;47.712;9.272;2023-12-04T10:11:45;95397.91;;;0.31;69.39
84358;BME280;74548;47.712;9.272;2023-12-04T10:14:15;95387.09;;;0.33;69.45
84358;BME280;74548;47.712;9.272;2023-12-04T10:16:42;95388.69;;;0.34;69.71
84358;BME280;74548;47.712;9.272;2023-12-04T10:19:21;95375.41;;;0.34;69.39
84358;BME280;74548;47.712;9.272;2023-12-04T10:21:56;95360.28;;;0.34;69.61
84358;BME280;74548;47.712;9.272;2023-12-04T10:24:32;95358.69;;;0.33;69.25
84358;BME280;74548;47.712;9.272;2023-12-04T10:26:59;95358.44;;;0.35;69.46
84358;BME280;74548;47.712;9.272;2023-12-04T10:29:27;95350.47;;;0.35;69.36
84358;BME280;74548;47.712;9.272;2023-12-04T10:31:53;95338.03;;;0.35;69.61
84358;BME280;74548;47.712;9.272;2023-12-04T10:34:21;95324.75;;;0.35;69.27
84358;BME280;74548;47.712;9.272;2023-12-04T10:36:49;95314.94;;;0.36;69.21
84358;BME280;74548;47.712;9.272;2023-12-04T10:39:14;95316.56;;;0.37;69.24
84358;BME280;74548;47.712;9.272;2023-12-04T10:41:40;95323.47;;;0.38;69.22
84358;BME280;74548;47.712;9.272;2023-12-04T10:44:05;95318.16;;;0.38;69.27
84358;BME280;74548;47.712;9.272;2023-12-04T10:46:32;95306.75;;;0.37;68.94
84358;BME280;74548;47.712;9.272;2023-12-04T10:49:00;95309.41;;;0.37;69.31
84358;BME280;74548;47.712;9.272;2023-12-04T10:51:26;95310.19;;;0.38;69.12
84358;BME280;74548;47.712;9.272;2023-12-04T10:53:53;95303.06;;;0.38;69.02
84358;BME280;74548;47.712;9.272;2023-12-04T10:56:20;95314.25;;;0.40;69.22
84358;BME280;74548;47.712;9.272;2023-12-04T10:58:51;95328.09;;;0.42;69.14
84358;BME280;74548;47.712;9.272;2023-12-04T11:01:19;95311.13;;;0.43;68.94
84358;BME280;74548;47.712;9.272;2023-12-04T11:03:47;95313.56;;;0.45;69.19
84358;BME280;74548;47.712;9.272;2023-12-04T11:06:16;95318.06;;;0.44;69.13
84358;BME280;74548;47.712;9.272;2023-12-04T11:08:42;95334.81;;;0.45;69.01
84358;BME280;74548;47.712;9.272;2023-12-04T11:11:12;95311.94;;;0.44;68.38
84358;BME280;74548;47.712;9.272;2023-12-04T11:13:40;95327.84;;;0.44;68.69
84358;BME280;74548;47.712;9.272;2023-12-04T11:16:38;95310.09;;;0.44;68.77
84358;BME280;74548;47.712;9.272;2023-12-04T11:19:34;95288.63;;;0.46;68.98
84358;BME280;74548;47.712;9.272;2023-12-04T11:22:03;95279.84;;;0.45;69.01
84358;BME280;74548;47.712;9.272;2023-12-04T11:24:28;95283.56;;;0.44;69.25
84358;BME280;74548;47.712;9.272;2023-12-04T11:26:54;95281.38;;;0.41;68.89
84358;BME280;74548;47.712;9.272;2023-12-04T11:29:21;95294.38;;;0.43;68.89
84358;BME280;74548;47.712;9.272;2023-12-04T11:31:47;95263.34;;;0.43;69.25
84358;BME280;74548;47.712;9.272;2023-12-04T11:34:12;95276.63;;;0.43;69.15
84358;BME280;74548;47.712;9.272;2023-12-04T11:36:38;95264.97;;;0.44;69.09
84358;BME280;74548;47.712;9.272;2023-12-04T11:39:08;95263.91;;;0.45;69.37
84358;BME280;74548;47.712;9.272;2023-12-04T11:41:35;95245.34;;;0.45;69.33
84358;BME280;74548;47.712;9.272;2023-12-04T11:44:00;95251.44;;;0.46;69.09
84358;BME280;74548;47.712;9.272;2023-12-04T11:46:28;95245.34;;;0.45;69.36
84358;BME280;74548;47.712;9.272;2023-12-04T11:49:16;95233.19;;;0.50;69.41
84358;BME280;74548;47.712;9.272;2023-12-04T11:54:08;95219.47;;;0.53;69.63
84358;BME280;74548;47.712;9.272;2023-12-04T11:56:34;95240.47;;;0.54;69.09
84358;BME280;74548;47.712;9.272;2023-12-04T11:59:06;95247.16;;;0.57;69.15
84358;BME280;74548;47.712;9.272;2023-12-04T12:01:38;95241.84;;;0.57;69.18
84358;BME280;74548;47.712;9.272;2023-12-04T12:04:07;95252.00;;;0.60;69.66
84358;BME280;74548;47.712;9.272;2023-12-04T12:06:33;95237.69;;;0.61;69.26
84358;BME280;74548;47.712;9.272;2023-12-04T12:08:58;95242.19;;;0.60;69.15
84358;BME280;74548;47.712;9.272;2023-12-04T12:11:24;95250.16;;;0.60;69.11
84358;BME280;74548;47.712;9.272;2023-12-04T12:13:52;95243.00;;;0.61;69.49
84358;BME280;74548;47.712;9.272;2023-12-04T12:16:18;95240.34;;;0.61;69.30
84358;BME280;74548;47.712;9.272;2023-12-04T12:18:43;95244.03;;;0.60;69.32
84358;BME280;74548;47.712;9.272;2023-12-04T12:21:09;95228.09;;;0.60;69.64
84358;BME280;74548;47.712;9.272;2023-12-04T12:23:35;95224.41;;;0.61;69.29
84358;BME280;74548;47.712;9.272;2023-12-04T12:26:00;95219.31;;;0.59;69.23
84358;BME280;74548;47.712;9.272;2023-12-04T12:28:25;95229.16;;;0.59;69.84
84358;BME280;74548;47.712;9.272;2023-12-04T12:30:51;95211.59;;;0.58;70.03
84358;BME280;74548;47.712;9.272;2023-12-04T12:33:19;95217.94;;;0.57;69.65
84358;BME280;74548;47.712;9.272;2023-12-04T12:35:46;95211.59;;;0.58;69.39
84358;BME280;74548;47.712;9.272;2023-12-04T12:38:12;95206.28;;;0.58;69.54
84358;BME280;74548;47.712;9.272;2023-12-04T12:40:38;95197.28;;;0.59;69.89
84358;BME280;74548;47.712;9.272;2023-12-04T12:43:05;95194.63;;;0.59;69.40
84358;BME280;74548;47.712;9.272;2023-12-04T12:45:41;95187.13;;;0.56;69.66
84358;BME280;74548;47.712;9.272;2023-12-04T12:48:13;95185.38;;;0.61;69.74
84358;BME280;74548;47.712;9.272;2023-12-04T12:50:38;95176.38;;;0.62;69.69
84358;BME280;74548;47.712;9.272;2023-12-04T12:53:04;95166.00;;;0.61;69.49
84358;BME280;74548;47.712;9.272;2023-12-04T12:55:29;95159.38;;;0.63;69.80
84358;BME280;74548;47.712;9.272;2023-12-04T12:57:57;95178.81;;;0.64;69.46
84358;BME280;74548;47.712;9.272;2023-12-04T13:00:23;95186.97;;;0.62;69.86
84358;BME280;74548;47.712;9.272;2023-12-04T13:02:51;95182.47;;;0.63;69.90